createdAt,value
2023-01-17T00:01:46.581Z,6.40
2023-01-17T00:04:32.125Z,4.77
2023-01-17T00:07:17.408Z,5.43
2023-01-17T00:09:53.022Z,4.47
2023-01-17T00:12:28.151Z,5.40
2023-01-17T00:14:56.197Z,6.63
2023-01-17T00:17:23.838Z,4.57
2023-01-17T00:20:08.992Z,4.03
2023-01-17T00:22:54.113Z,4.53
2023-01-17T00:25:42.335Z,4.33
2023-01-17T00:28:08.793Z,4.33
2023-01-17T00:30:35.484Z,4.80
2023-01-17T00:33:01.933Z,6.57
2023-01-17T00:35:29.737Z,7.00
2023-01-17T00:38:07.391Z,7.80
2023-01-17T00:40:35.241Z,7.90
2023-01-17T00:43:20.573Z,8.10
2023-01-17T00:46:06.359Z,8.00
2023-01-17T00:48:52.650Z,8.70
2023-01-17T00:51:37.784Z,8.93
2023-01-17T00:54:23.190Z,10.27
2023-01-17T00:57:08.774Z,11.27
2023-01-17T00:59:54.315Z,10.37
2023-01-17T01:02:39.430Z,8.60
2023-01-17T01:05:25.069Z,7.30
2023-01-17T01:08:10.251Z,7.63
2023-01-17T01:10:55.420Z,8.17
2023-01-17T01:13:44.652Z,7.53
2023-01-17T01:16:30.859Z,12.53
2023-01-17T01:19:17.170Z,7.57
2023-01-17T01:22:02.348Z,8.70
2023-01-17T01:24:47.720Z,9.00
2023-01-17T01:27:33.137Z,7.20
2023-01-17T01:30:18.502Z,7.60
2023-01-17T01:33:03.436Z,8.80
2023-01-17T01:35:29.969Z,9.40
2023-01-17T01:37:57.307Z,11.70
2023-01-17T01:40:23.840Z,8.03
2023-01-17T01:42:56.437Z,8.03
2023-01-17T01:45:31.399Z,8.83
2023-01-17T01:48:03.253Z,7.80
2023-01-17T01:50:30.745Z,9.10
2023-01-17T01:52:59.311Z,8.77
2023-01-17T01:55:35.046Z,8.37
2023-01-17T01:58:11.416Z,8.40
2023-01-17T02:00:40.968Z,7.47
2023-01-17T02:03:17.908Z,7.67
2023-01-17T02:05:44.558Z,6.67
2023-01-17T02:08:13.886Z,6.97
2023-01-17T02:10:41.935Z,6.90
2023-01-17T02:13:09.367Z,6.90
2023-01-17T02:15:54.348Z,6.37
2023-01-17T02:18:21.245Z,7.27
2023-01-17T02:20:58.684Z,7.30
2023-01-17T02:23:49.579Z,6.90
2023-01-17T02:26:30.511Z,5.10
2023-01-17T02:29:18.250Z,5.60
2023-01-17T02:31:49.377Z,7.77
2023-01-17T02:34:29.195Z,10.30
2023-01-17T02:37:14.071Z,5.17
2023-01-17T02:39:47.331Z,4.20
2023-01-17T02:42:16.899Z,4.97
2023-01-17T02:44:44.305Z,6.03
2023-01-17T02:47:24.074Z,5.97
2023-01-17T02:49:56.156Z,3.07
2023-01-17T02:52:27.215Z,2.00
2023-01-17T02:55:22.650Z,1.60
2023-01-17T02:58:06.866Z,1.60
2023-01-17T03:01:19.135Z,2.93
2023-01-17T03:03:55.277Z,2.87
2023-01-17T03:06:47.258Z,5.80
2023-01-17T03:09:15.202Z,2.40
2023-01-17T03:11:42.411Z,3.77
2023-01-17T03:14:08.924Z,3.13
2023-01-17T03:16:35.638Z,2.17
2023-01-17T03:19:02.716Z,3.27
2023-01-17T03:21:29.408Z,2.90
2023-01-17T03:23:55.898Z,3.67
2023-01-17T03:26:22.384Z,3.43
2023-01-17T03:28:48.970Z,3.20
2023-01-17T03:31:16.622Z,3.67
2023-01-17T03:33:43.209Z,2.10
2023-01-17T03:36:09.911Z,1.33
2023-01-17T03:38:37.395Z,4.00
2023-01-17T03:41:04.575Z,1.30
2023-01-17T03:43:31.067Z,1.10
2023-01-17T03:46:05.849Z,1.97
2023-01-17T03:48:32.720Z,1.73
2023-01-17T03:50:59.592Z,1.17
2023-01-17T03:53:26.101Z,2.40
2023-01-17T03:55:52.807Z,1.70
2023-01-17T03:58:20.071Z,1.70
2023-01-17T04:00:46.982Z,1.70
2023-01-17T04:03:13.502Z,1.87
2023-01-17T04:05:40.094Z,2.23
2023-01-17T04:08:07.320Z,1.80
2023-01-17T04:10:33.873Z,2.07
2023-01-17T04:13:00.677Z,1.67
2023-01-17T04:15:27.192Z,2.10
2023-01-17T04:17:53.750Z,2.17
2023-01-17T04:20:32.091Z,2.00
2023-01-17T04:22:58.575Z,2.40
2023-01-17T04:25:25.720Z,2.20
2023-01-17T04:27:53.246Z,3.10
2023-01-17T04:30:20.134Z,3.33
2023-01-17T04:32:46.675Z,4.80
2023-01-17T04:35:13.223Z,4.60
2023-01-17T04:37:40.437Z,7.03
2023-01-17T04:40:07.807Z,5.87
2023-01-17T04:42:34.334Z,6.27
2023-01-17T04:45:00.913Z,6.87
2023-01-17T04:47:27.783Z,7.57
2023-01-17T04:49:54.295Z,9.40
2023-01-17T04:52:20.908Z,9.47
2023-01-17T04:54:51.210Z,8.90
2023-01-17T04:57:18.096Z,11.10
2023-01-17T04:59:45.289Z,9.80
2023-01-17T05:02:12.532Z,9.40
2023-01-17T05:04:39.105Z,8.57
2023-01-17T05:07:06.113Z,15.77
2023-01-17T05:09:32.739Z,10.03
2023-01-17T05:11:59.256Z,12.40
2023-01-17T05:14:26.339Z,14.73
2023-01-17T05:16:56.619Z,9.77
2023-01-17T05:19:23.917Z,12.23
2023-01-17T05:21:50.659Z,11.90
2023-01-17T05:24:17.195Z,9.80
2023-01-17T05:26:43.828Z,9.60
2023-01-17T05:29:10.657Z,9.67
2023-01-17T05:31:37.431Z,8.80
2023-01-17T05:34:04.231Z,6.60
2023-01-17T05:36:30.827Z,7.63
2023-01-17T05:38:57.537Z,10.77
2023-01-17T05:41:24.041Z,9.80
2023-01-17T05:43:50.668Z,5.87
2023-01-17T05:46:18.060Z,9.50
2023-01-17T05:48:44.721Z,9.83
2023-01-17T05:51:11.227Z,7.50
2023-01-17T05:53:37.763Z,7.10
2023-01-17T05:56:04.419Z,8.40
2023-01-17T05:58:30.950Z,11.13
2023-01-17T06:00:57.550Z,12.07
2023-01-17T06:03:24.311Z,9.53
2023-01-17T06:05:50.941Z,12.60
2023-01-17T06:08:17.663Z,8.10
2023-01-17T06:10:44.137Z,9.23
2023-01-17T06:13:13.573Z,9.17
2023-01-17T06:15:40.993Z,12.63
2023-01-17T06:18:17.659Z,10.23
2023-01-17T06:20:44.824Z,9.60
2023-01-17T06:23:12.877Z,11.70
2023-01-17T06:25:44.822Z,12.00
2023-01-17T06:28:12.624Z,14.10
2023-01-17T06:30:39.492Z,12.30
2023-01-17T06:33:06.274Z,10.73
2023-01-17T06:35:32.985Z,10.97
2023-01-17T06:38:00.528Z,12.00
2023-01-17T06:40:28.822Z,15.33
2023-01-17T06:43:02.913Z,12.10
2023-01-17T06:45:30.743Z,13.27
2023-01-17T06:47:59.141Z,11.37
2023-01-17T06:50:28.690Z,10.40
2023-01-17T06:52:57.364Z,10.90
2023-01-17T06:55:24.318Z,12.90
2023-01-17T06:57:51.120Z,10.47
2023-01-17T07:00:18.000Z,15.30
2023-01-17T07:02:47.844Z,14.37
2023-01-17T07:05:16.268Z,15.00
2023-01-17T07:07:44.792Z,19.47
2023-01-17T07:10:13.042Z,11.60
2023-01-17T07:12:39.730Z,11.97
2023-01-17T07:15:07.252Z,11.77
2023-01-17T07:17:34.452Z,12.80
2023-01-17T07:20:01.031Z,11.00
2023-01-17T07:22:27.805Z,12.13
2023-01-17T07:24:58.480Z,14.10
2023-01-17T07:27:25.952Z,12.50
2023-01-17T07:29:54.204Z,13.47
2023-01-17T07:32:21.002Z,12.00
2023-01-17T07:34:47.496Z,12.47
2023-01-17T07:37:15.317Z,15.40
2023-01-17T07:39:42.137Z,11.07
2023-01-17T07:42:09.116Z,12.57
2023-01-17T07:44:35.649Z,11.43
2023-01-17T07:47:02.454Z,13.50
2023-01-17T07:49:29.051Z,17.60
2023-01-17T07:51:55.603Z,15.33
2023-01-17T07:54:22.178Z,11.00
2023-01-17T07:56:48.986Z,15.17
2023-01-17T07:59:15.590Z,17.93
2023-01-17T08:01:42.219Z,19.70
2023-01-17T08:04:09.388Z,13.47
2023-01-17T08:06:37.910Z,11.50
2023-01-17T08:09:05.022Z,16.10
2023-01-17T08:11:31.558Z,13.97
2023-01-17T08:13:59.421Z,14.53
2023-01-17T08:16:27.070Z,15.30
2023-01-17T08:18:54.832Z,13.90
2023-01-17T08:21:21.700Z,11.40
2023-01-17T08:23:49.065Z,14.83
2023-01-17T08:26:21.487Z,14.27
2023-01-17T08:29:00.424Z,14.03
2023-01-17T08:31:31.488Z,18.23
2023-01-17T08:33:58.357Z,12.10
2023-01-17T08:36:25.894Z,13.37
2023-01-17T08:38:53.076Z,12.67
2023-01-17T08:41:23.567Z,11.77
2023-01-17T08:43:51.403Z,12.53
2023-01-17T08:46:18.301Z,14.43
2023-01-17T08:48:45.073Z,11.80
2023-01-17T08:51:12.579Z,11.07
2023-01-17T08:53:40.658Z,12.43
2023-01-17T08:56:07.902Z,11.43
2023-01-17T08:58:35.840Z,9.53
2023-01-17T09:01:03.703Z,11.93
2023-01-17T09:03:31.578Z,14.10
2023-01-17T09:06:07.484Z,8.20
2023-01-17T09:08:34.640Z,11.10
2023-01-17T09:11:09.856Z,13.00
2023-01-17T09:13:37.174Z,9.70
2023-01-17T09:16:04.506Z,9.37
2023-01-17T09:18:32.064Z,9.67
2023-01-17T09:21:01.474Z,11.13
2023-01-17T09:23:30.157Z,12.80
2023-01-17T09:25:58.574Z,19.27
2023-01-17T09:28:26.476Z,14.90
2023-01-17T09:30:53.482Z,14.60
2023-01-17T09:33:20.780Z,21.27
2023-01-17T09:35:47.662Z,14.20
2023-01-17T09:38:14.612Z,14.30
2023-01-17T09:40:48.614Z,11.20
2023-01-17T09:43:18.201Z,10.90
2023-01-17T09:45:45.073Z,11.93
2023-01-17T09:48:17.796Z,13.33
2023-01-17T09:50:50.617Z,9.87
2023-01-17T09:53:20.766Z,10.57
2023-01-17T09:55:54.645Z,8.87
2023-01-17T09:58:34.310Z,7.00
2023-01-17T10:01:10.187Z,9.50
2023-01-17T10:03:39.737Z,9.50
2023-01-17T10:07:03.443Z,11.73
2023-01-17T10:09:29.909Z,11.77
2023-01-17T10:12:11.427Z,14.50
2023-01-17T10:15:07.106Z,12.40
2023-01-17T10:17:54.393Z,10.63
2023-01-17T10:20:33.918Z,12.10
2023-01-17T10:23:26.864Z,12.17
2023-01-17T10:25:56.479Z,10.00
2023-01-17T10:28:22.982Z,9.07
2023-01-17T10:30:51.255Z,10.77
2023-01-17T10:33:23.193Z,11.93
2023-01-17T10:36:03.735Z,9.93
2023-01-17T10:38:37.873Z,9.00
2023-01-17T10:41:08.645Z,9.83
2023-01-17T10:43:53.424Z,12.13
2023-01-17T10:46:28.478Z,12.57
2023-01-17T10:48:55.452Z,9.03
2023-01-17T10:51:50.433Z,9.90
2023-01-17T10:54:39.919Z,10.37
2023-01-17T10:57:14.798Z,10.07
2023-01-17T10:59:41.405Z,12.00
2023-01-17T11:02:35.963Z,7.97
2023-01-17T11:05:05.573Z,6.13
2023-01-17T11:07:32.186Z,6.23
2023-01-17T11:09:59.237Z,6.77
2023-01-17T11:12:45.285Z,9.07
2023-01-17T11:15:11.916Z,9.30
2023-01-17T11:17:43.410Z,6.53
2023-01-17T11:20:20.019Z,6.33
2023-01-17T11:23:02.997Z,6.47
2023-01-17T11:25:33.993Z,8.07
2023-01-17T11:28:06.698Z,8.83
2023-01-17T11:30:33.691Z,7.67
2023-01-17T11:33:04.301Z,10.50
2023-01-17T11:35:31.435Z,7.93
2023-01-17T11:38:19.002Z,7.30
2023-01-17T11:40:46.947Z,6.60
2023-01-17T11:43:18.539Z,8.00
2023-01-17T11:45:46.546Z,8.10
2023-01-17T11:48:17.535Z,7.83
2023-01-17T11:50:59.520Z,8.13
2023-01-17T11:53:33.730Z,11.20
2023-01-17T11:56:23.102Z,14.40
2023-01-17T11:58:51.008Z,9.53
2023-01-17T12:01:27.204Z,16.43
2023-01-17T12:04:08.651Z,9.03
2023-01-17T12:06:56.236Z,7.10
2023-01-17T12:09:42.828Z,10.60
2023-01-17T12:12:43.395Z,12.13
2023-01-17T12:15:18.993Z,11.73
2023-01-17T12:18:08.994Z,8.67
2023-01-17T12:21:02.925Z,10.83
2023-01-17T12:23:54.866Z,8.40
2023-01-17T12:26:32.573Z,5.13
2023-01-17T12:29:30.387Z,6.70
2023-01-17T12:32:19.534Z,10.67
2023-01-17T12:34:57.944Z,10.30
2023-01-17T12:37:31.750Z,6.37
2023-01-17T12:40:22.173Z,6.30
2023-01-17T12:42:54.672Z,11.10
2023-01-17T12:45:32.115Z,7.07
2023-01-17T12:48:02.979Z,8.57
2023-01-17T12:50:37.158Z,11.27
2023-01-17T12:53:25.584Z,8.23
2023-01-17T12:55:55.440Z,10.30
2023-01-17T12:58:25.337Z,10.80
2023-01-17T13:01:20.449Z,8.37
2023-01-17T13:04:06.234Z,10.33
2023-01-17T13:06:40.699Z,12.97
2023-01-17T13:09:09.784Z,9.07
2023-01-17T13:11:43.705Z,8.53
2023-01-17T13:14:10.509Z,6.40
2023-01-17T13:16:44.599Z,8.63
2023-01-17T13:19:18.237Z,7.83
2023-01-17T13:21:46.350Z,8.20
2023-01-17T13:24:18.719Z,8.20
2023-01-17T13:27:06.613Z,9.00
2023-01-17T13:30:11.067Z,9.60
2023-01-17T13:32:46.964Z,13.50
2023-01-17T13:35:13.420Z,6.50
2023-01-17T13:38:17.544Z,5.00
2023-01-17T13:41:01.378Z,12.60
2023-01-17T13:43:36.053Z,10.23
2023-01-17T13:46:03.717Z,5.97
2023-01-17T13:48:32.223Z,12.73
2023-01-17T13:51:00.600Z,8.53
2023-01-17T13:53:39.188Z,9.80
2023-01-17T13:56:26.493Z,5.20
2023-01-17T13:58:57.626Z,4.73
2023-01-17T14:01:24.541Z,6.60
2023-01-17T14:03:51.381Z,7.10
2023-01-17T14:06:36.235Z,6.57
2023-01-17T14:09:02.695Z,8.37
2023-01-17T14:11:33.715Z,9.90
2023-01-17T14:14:39.400Z,12.40
2023-01-17T14:17:20.291Z,7.83
2023-01-17T14:19:48.631Z,5.30
2023-01-17T14:22:21.247Z,10.53
2023-01-17T14:25:02.027Z,7.50
2023-01-17T14:27:31.844Z,4.83
2023-01-17T14:30:00.043Z,7.57
2023-01-17T14:32:30.288Z,7.33
2023-01-17T14:34:57.373Z,5.87
2023-01-17T14:37:32.975Z,7.33
2023-01-17T14:40:00.537Z,11.33
2023-01-17T14:42:29.683Z,8.87
2023-01-17T14:45:02.139Z,7.40
2023-01-17T14:47:31.900Z,5.17
2023-01-17T14:50:17.418Z,11.03
2023-01-17T14:52:46.636Z,10.43
2023-01-17T14:55:18.832Z,3.77
2023-01-17T14:57:57.898Z,3.20
2023-01-17T15:00:25.597Z,4.03
2023-01-17T15:02:53.153Z,4.20
2023-01-17T15:05:21.451Z,4.63
2023-01-17T15:07:52.910Z,5.67
2023-01-17T15:10:26.322Z,5.50
2023-01-17T15:12:53.073Z,7.80
2023-01-17T15:15:32.064Z,8.00
2023-01-17T15:18:08.564Z,8.87
2023-01-17T15:20:36.112Z,9.20
2023-01-17T15:23:02.988Z,6.70
2023-01-17T15:25:29.479Z,9.13
2023-01-17T15:27:56.273Z,7.43
2023-01-17T15:30:25.093Z,5.80
2023-01-17T15:32:52.516Z,8.40
2023-01-17T15:35:19.449Z,7.93
2023-01-17T15:37:51.959Z,13.30
2023-01-17T15:40:23.509Z,10.20
2023-01-17T15:42:58.678Z,6.53
2023-01-17T15:45:29.643Z,9.30
2023-01-17T15:47:56.129Z,7.77
2023-01-17T15:50:30.152Z,7.67
2023-01-17T15:53:05.363Z,16.13
2023-01-17T15:55:39.643Z,11.00
2023-01-17T15:58:23.187Z,9.97
2023-01-17T16:00:49.710Z,5.57
2023-01-17T16:03:19.207Z,6.40
2023-01-17T16:05:46.820Z,7.27
2023-01-17T16:08:15.390Z,5.83
2023-01-17T16:10:43.101Z,6.20
2023-01-17T16:13:11.688Z,8.43
2023-01-17T16:15:38.378Z,11.83
2023-01-17T16:18:07.899Z,11.27
2023-01-17T16:20:37.401Z,11.57
2023-01-17T16:23:03.910Z,19.80
2023-01-17T16:25:32.709Z,17.60
2023-01-17T16:27:59.623Z,9.53
2023-01-17T16:30:26.692Z,10.80
2023-01-17T16:32:53.702Z,10.67
2023-01-17T16:35:22.215Z,14.80
2023-01-17T16:37:54.093Z,12.40
2023-01-17T16:40:22.986Z,12.03
2023-01-17T16:42:49.757Z,11.07
2023-01-17T16:45:17.567Z,10.87
2023-01-17T16:47:46.192Z,11.30
2023-01-17T16:50:14.753Z,12.17
2023-01-17T16:52:41.265Z,9.00
2023-01-17T16:55:12.078Z,10.17
2023-01-17T16:57:38.942Z,14.13
2023-01-17T17:00:06.365Z,10.87
2023-01-17T17:02:33.077Z,14.97
2023-01-17T17:04:59.898Z,15.23
2023-01-17T17:07:26.399Z,12.97
2023-01-17T17:09:52.955Z,12.23
2023-01-17T17:12:19.469Z,11.97
2023-01-17T17:14:45.957Z,11.73
2023-01-17T17:17:12.579Z,9.83
2023-01-17T17:19:39.684Z,11.00
2023-01-17T17:22:06.661Z,7.87
2023-01-17T17:24:33.311Z,9.70
2023-01-17T17:26:59.828Z,10.80
2023-01-17T17:29:26.344Z,14.00
2023-01-17T17:31:53.806Z,12.23
2023-01-17T17:34:20.985Z,14.10
2023-01-17T17:36:47.431Z,8.53
2023-01-17T17:39:17.442Z,13.50
2023-01-17T17:41:45.592Z,10.97
2023-01-17T17:44:12.477Z,8.50
2023-01-17T17:46:39.080Z,10.43
2023-01-17T17:49:08.445Z,7.30
2023-01-17T17:51:39.492Z,14.30
2023-01-17T17:54:11.416Z,12.60
2023-01-17T17:56:38.606Z,13.67
2023-01-17T17:59:07.183Z,7.60
2023-01-17T18:01:33.866Z,7.60
2023-01-17T18:04:01.840Z,28.73
2023-01-17T18:06:28.621Z,17.23
2023-01-17T18:08:55.057Z,26.40
2023-01-17T18:11:25.878Z,22.27
2023-01-17T18:13:54.823Z,33.57
2023-01-17T18:16:31.116Z,27.37
2023-01-17T18:18:58.911Z,20.40
2023-01-17T18:21:31.683Z,20.63
2023-01-17T18:24:00.419Z,16.13
2023-01-17T18:26:31.979Z,15.20
2023-01-17T18:28:59.718Z,14.03
2023-01-17T18:31:27.556Z,17.97
2023-01-17T18:33:55.512Z,14.70
2023-01-17T18:36:23.465Z,19.03
2023-01-17T18:38:51.596Z,12.93
2023-01-17T18:41:23.456Z,13.83
2023-01-17T18:43:50.396Z,14.20
2023-01-17T18:46:17.949Z,12.87
2023-01-17T18:48:44.697Z,16.50
2023-01-17T18:51:13.254Z,19.70
2023-01-17T18:53:41.012Z,20.33
2023-01-17T18:56:09.939Z,17.37
2023-01-17T18:58:38.784Z,25.50
2023-01-17T19:01:11.637Z,19.40
2023-01-17T19:03:40.173Z,24.73
2023-01-17T19:06:08.265Z,23.43
2023-01-17T19:08:35.538Z,25.73
2023-01-17T19:11:04.364Z,18.73
2023-01-17T19:13:35.613Z,18.00
2023-01-17T19:16:03.723Z,17.87
2023-01-17T19:18:30.970Z,17.10
2023-01-17T19:21:08.865Z,24.67
2023-01-17T19:23:36.123Z,21.27
2023-01-17T19:26:04.242Z,19.33
2023-01-17T19:28:30.854Z,23.53
2023-01-17T19:31:10.990Z,25.37
2023-01-17T19:33:39.158Z,25.87
2023-01-17T19:36:08.823Z,23.23
2023-01-17T19:38:36.611Z,20.50
2023-01-17T19:41:10.565Z,18.70
2023-01-17T19:43:37.708Z,22.80
2023-01-17T19:46:04.482Z,19.40
2023-01-17T19:48:31.384Z,17.30
2023-01-17T19:51:07.318Z,18.03
2023-01-17T19:53:35.730Z,16.57
2023-01-17T19:56:14.583Z,20.10
2023-01-17T19:58:41.747Z,20.87
2023-01-17T20:01:09.730Z,19.13
2023-01-17T20:03:37.621Z,19.73
2023-01-17T20:06:09.007Z,27.63
2023-01-17T20:08:35.820Z,30.17
2023-01-17T20:11:08.299Z,39.37
2023-01-17T20:13:34.935Z,25.20
2023-01-17T20:16:03.456Z,24.43
2023-01-17T20:18:30.354Z,23.37
2023-01-17T20:21:02.878Z,30.33
2023-01-17T20:23:32.134Z,25.20
2023-01-17T20:26:03.425Z,25.50
2023-01-17T20:28:34.142Z,27.20
2023-01-17T20:31:09.051Z,32.60
2023-01-17T20:33:36.389Z,28.27
2023-01-17T20:36:10.471Z,28.63
2023-01-17T20:38:44.667Z,26.40
2023-01-17T20:41:22.855Z,29.13
2023-01-17T20:43:54.248Z,25.13
2023-01-17T20:46:22.166Z,22.60
2023-01-17T20:48:50.679Z,22.23
2023-01-17T20:51:18.181Z,20.30
2023-01-17T20:53:45.820Z,22.50
2023-01-17T20:56:14.072Z,18.27
2023-01-17T20:58:41.203Z,20.93
2023-01-17T21:01:09.331Z,23.13
2023-01-17T21:03:37.546Z,22.23
2023-01-17T21:06:09.889Z,27.10
2023-01-17T21:08:38.474Z,25.33
2023-01-17T21:11:06.430Z,29.63
2023-01-17T21:13:33.225Z,25.37
2023-01-17T21:15:59.758Z,31.67
2023-01-17T21:18:27.505Z,30.67
2023-01-17T21:20:54.110Z,25.10
2023-01-17T21:23:20.790Z,29.00
2023-01-17T21:25:55.639Z,25.20
2023-01-17T21:28:24.215Z,30.70
2023-01-17T21:30:51.173Z,24.97
2023-01-17T21:33:18.236Z,23.87
2023-01-17T21:35:45.205Z,18.90
2023-01-17T21:38:12.786Z,22.23
2023-01-17T21:40:40.258Z,19.33
2023-01-17T21:43:07.545Z,23.63
2023-01-17T21:45:38.358Z,19.43
2023-01-17T21:48:06.696Z,20.10
2023-01-17T21:50:34.073Z,22.47
2023-01-17T21:53:00.733Z,19.37
2023-01-17T21:55:45.825Z,19.23
2023-01-17T21:58:35.729Z,19.53
2023-01-17T22:01:17.663Z,22.57
2023-01-17T22:03:50.705Z,21.10
2023-01-17T22:06:17.827Z,23.40
2023-01-17T22:08:44.508Z,21.10
2023-01-17T22:11:13.544Z,17.30
2023-01-17T22:13:42.010Z,20.00
2023-01-17T22:16:11.405Z,20.53
2023-01-17T22:18:39.199Z,21.53
2023-01-17T22:21:16.918Z,20.63
2023-01-17T22:23:57.884Z,23.67
2023-01-17T22:26:27.394Z,17.87
2023-01-17T22:28:54.715Z,25.43
2023-01-17T22:31:26.393Z,20.40
2023-01-17T22:33:58.829Z,21.03
2023-01-17T22:36:26.157Z,23.37
2023-01-17T22:38:52.821Z,22.37
2023-01-17T22:41:24.732Z,17.80
2023-01-17T22:43:53.348Z,23.20
2023-01-17T22:46:25.305Z,22.93
2023-01-17T22:48:52.973Z,24.90
2023-01-17T22:51:20.889Z,20.53
2023-01-17T22:53:49.969Z,21.77
2023-01-17T22:56:18.452Z,25.47
2023-01-17T22:58:45.701Z,19.20
2023-01-17T23:01:14.161Z,21.40
2023-01-17T23:03:41.853Z,24.83
2023-01-17T23:06:16.675Z,22.07
2023-01-17T23:08:45.299Z,30.03
2023-01-17T23:11:39.682Z,24.63
2023-01-17T23:14:15.854Z,18.97
2023-01-17T23:17:06.555Z,20.50
2023-01-17T23:19:37.641Z,24.40
2023-01-17T23:22:15.694Z,19.30
2023-01-17T23:24:46.822Z,19.73
2023-01-17T23:27:36.527Z,21.50
2023-01-17T23:30:13.314Z,26.93
2023-01-17T23:32:43.233Z,16.90
2023-01-17T23:35:09.835Z,18.97
2023-01-17T23:37:54.892Z,25.63
2023-01-17T23:40:21.954Z,26.33
2023-01-17T23:43:07.440Z,18.97
2023-01-17T23:45:38.163Z,22.13
2023-01-17T23:48:09.325Z,23.03
2023-01-17T23:50:37.781Z,19.97
2023-01-17T23:53:07.229Z,22.50
2023-01-17T23:55:38.293Z,24.43
2023-01-17T23:58:06.585Z,20.67
